Time;durP1;ratioP1;P1;durP2;ratioP2;P2;SDS_P1;SDS_P2;PMS_P1;PMS_P2;Temp;Humidity;BMP_temperature;BMP_pressure;BME280_temperature;BME280_humidity;BME280_pressure;Samples;Min_cycle;Max_cycle;Signal;HPM_P1;HPM_P2
2022/05/28 00:01:38;;;;;;;5.35;2.12;;;;;;;10.12;100.00;99394.55;1690003;84;21092;-69
2022/05/28 00:04:04;;;;;;;3.00;2.30;;;;;;;10.11;100.00;99400.74;1690261;84;21116;-70
2022/05/28 00:06:32;;;;;;;4.47;2.30;;;;;;;10.10;100.00;99421.41;1690071;84;21019;-70
2022/05/28 00:08:59;;;;;;;7.37;2.42;;;;;;;10.10;100.00;99433.25;1690106;84;21077;-70
2022/05/28 00:11:35;;;;;;;4.35;2.40;;;;;;;10.09;100.00;99456.05;1690056;83;21077;-71
2022/05/28 00:14:02;;;;;;;3.90;2.52;;;;;;;10.08;100.00;99464.04;1705998;82;21569;-70
2022/05/28 00:16:28;;;;;;;3.27;2.50;;;;;;;10.06;100.00;99463.25;1733992;82;21515;-70
2022/05/28 00:18:54;;;;;;;3.52;2.50;;;;;;;10.04;100.00;99463.78;1734160;82;21093;-69
2022/05/28 00:21:23;;;;;;;4.08;2.17;;;;;;;10.01;100.00;99461.30;1734382;82;21237;-69
2022/05/28 00:23:50;;;;;;;4.47;2.30;;;;;;;10.00;100.00;99447.73;1733782;82;21102;-71
2022/05/28 00:26:16;;;;;;;2.77;2.15;;;;;;;10.00;100.00;99448.58;1734301;82;21039;-70
2022/05/28 00:28:44;;;;;;;4.28;2.37;;;;;;;10.01;100.00;99423.16;1734373;81;21521;-70
2022/05/28 00:31:11;;;;;;;4.55;2.70;;;;;;;10.02;100.00;99427.48;1734359;82;21022;-70
2022/05/28 00:33:37;;;;;;;5.12;2.35;;;;;;;10.01;100.00;99408.69;1734473;82;21239;-71
2022/05/28 00:36:08;;;;;;;3.37;2.33;;;;;;;9.99;100.00;99389.02;1734077;82;21590;-70
2022/05/28 00:38:35;;;;;;;4.67;2.67;;;;;;;9.97;100.00;99388.23;1734543;82;21053;-70
2022/05/28 00:41:01;;;;;;;3.40;2.40;;;;;;;9.99;100.00;99411.38;1733869;82;21094;-70
2022/05/28 00:43:28;;;;;;;4.65;2.52;;;;;;;9.99;100.00;99401.33;1734365;82;21002;-69
2022/05/28 00:46:03;;;;;;;5.60;2.42;;;;;;;9.99;100.00;99385.08;1734462;82;21102;-71
2022/05/28 00:48:34;;;;;;;2.95;2.42;;;;;;;9.99;100.00;99382.91;1734165;82;21045;-70
2022/05/28 00:51:07;;;;;;;4.03;2.45;;;;;;;9.99;100.00;99422.37;1734098;82;21487;-69
2022/05/28 00:53:35;;;;;;;4.92;2.55;;;;;;;9.99;100.00;99427.16;1733774;82;21046;-70
2022/05/28 00:56:03;;;;;;;4.53;2.30;;;;;;;9.92;100.00;99436.26;1734537;82;21018;-70
2022/05/28 00:58:30;;;;;;;4.97;2.80;;;;;;;9.91;100.00;99440.27;1734301;82;21791;-70
2022/05/28 01:00:57;;;;;;;11.20;2.60;;;;;;;9.92;100.00;99424.89;1734120;82;21042;-70
2022/05/28 01:03:29;;;;;;;4.35;2.67;;;;;;;9.93;100.00;99418.22;1734429;82;21475;-70
2022/05/28 01:06:13;;;;;;;4.72;2.47;;;;;;;9.93;100.00;99414.75;1734149;82;21557;-69
2022/05/28 01:08:53;;;;;;;7.30;2.60;;;;;;;9.93;100.00;99421.33;1734197;82;22136;-70
2022/05/28 01:11:46;;;;;;;3.92;2.85;;;;;;;9.91;100.00;99416.13;1734438;82;21768;-71
2022/05/28 01:14:25;;;;;;;6.58;2.92;;;;;;;9.91;100.00;99417.91;1734111;82;21549;-70
2022/05/28 01:16:55;;;;;;;3.12;2.50;;;;;;;9.88;100.00;99405.28;1734215;82;21546;-71
2022/05/28 01:19:38;;;;;;;4.60;2.95;;;;;;;9.91;100.00;99406.07;1734382;82;21071;-70
2022/05/28 01:22:18;;;;;;;;;;;;;;;9.90;100.00;99428.89;1737123;82;21073;-70
2022/05/28 01:25:11;;;;;;;4.25;2.87;;;;;;;9.86;100.00;99433.42;1733492;82;21580;-69
2022/05/28 01:27:42;;;;;;;3.98;2.90;;;;;;;9.85;100.00;99431.73;1734026;81;21653;-70
2022/05/28 01:30:11;;;;;;;5.92;2.80;;;;;;;9.85;100.00;99426.47;1734437;82;21123;-72
2022/05/28 01:32:38;;;;;;;7.47;3.05;;;;;;;9.85;100.00;99438.31;1734253;82;21682;-69
2022/05/28 01:35:08;;;;;;;6.50;3.30;;;;;;;9.86;100.00;99425.54;1734349;82;21031;-69
2022/05/28 01:37:35;;;;;;;4.75;2.70;;;;;;;9.87;100.00;99420.69;1733950;82;21140;-70
2022/05/28 01:42:21;;;;;;;4.47;3.00;;;;;;;9.85;100.00;99421.69;1796552;79;28093;-70
2022/05/28 01:44:49;;;;;;;5.00;2.62;;;;;;;9.76;100.00;99408.48;1756308;81;20966;-70
2022/05/28 01:47:16;;;;;;;3.87;2.67;;;;;;;9.74;100.00;99418.21;1756204;81;21130;-70
2022/05/28 01:49:44;;;;;;;4.95;2.98;;;;;;;9.74;100.00;99406.37;1762038;81;21270;-71
2022/05/28 01:52:10;;;;;;;6.85;2.92;;;;;;;9.73;100.00;99412.58;1756603;81;21021;-72
2022/05/28 01:54:43;;;;;;;4.25;2.70;;;;;;;9.78;100.00;99418.94;1756404;81;21072;-69
2022/05/28 01:57:11;;;;;;;6.53;3.22;;;;;;;9.80;100.00;99424.95;1756451;81;21058;-70
2022/05/28 01:59:39;;;;;;;4.67;2.92;;;;;;;9.80;100.00;99437.67;1756573;81;21230;-70
2022/05/28 02:02:07;;;;;;;5.17;3.17;;;;;;;9.80;100.00;99427.59;1756642;81;21529;-69
2022/05/28 02:04:36;;;;;;;3.33;2.62;;;;;;;9.79;100.00;99422.80;1756607;81;21089;-71
2022/05/28 02:07:03;;;;;;;5.20;2.95;;;;;;;9.77;100.00;99436.94;1756331;81;21041;-70
2022/05/28 02:09:35;;;;;;;5.30;3.40;;;;;;;9.77;100.00;99440.88;1756387;81;21048;-68
2022/05/28 02:12:34;;;;;;;7.53;3.30;;;;;;;9.76;100.00;99439.19;1756341;81;21143;-70
2022/05/28 02:15:32;;;;;;;4.60;3.27;;;;;;;9.77;100.00;99435.16;1756641;81;21043;-69
2022/05/28 02:18:28;;;;;;;8.93;4.22;;;;;;;9.77;100.00;99414.13;1755993;81;21055;-69
2022/05/28 02:21:11;;;;;;;6.45;3.55;;;;;;;9.81;100.00;99421.42;1756232;81;21010;-70
2022/05/28 02:23:55;;;;;;;5.28;3.50;;;;;;;9.79;100.00;99408.33;1743301;81;21042;-69
2022/05/28 02:26:29;;;;;;;7.50;3.80;;;;;;;9.81;100.00;99406.48;1726331;83;21158;-69
2022/05/28 02:28:55;;;;;;;7.12;3.77;;;;;;;9.84;100.00;99404.18;1726516;82;21012;-70
2022/05/28 02:31:27;;;;;;;4.75;3.75;;;;;;;9.87;100.00;99416.74;1726429;83;21105;-69
2022/05/28 02:33:53;;;;;;;7.85;3.40;;;;;;;9.88;100.00;99413.17;1725580;82;21042;-70
2022/05/28 02:36:20;;;;;;;4.75;3.10;;;;;;;9.92;100.00;99410.42;1726443;82;21127;-69
2022/05/28 02:38:47;;;;;;;4.72;3.10;;;;;;;9.94;100.00;99412.50;1725979;82;21102;-69
2022/05/28 02:41:13;;;;;;;6.28;3.50;;;;;;;9.95;100.00;99415.06;1723771;82;21662;-69
2022/05/28 02:43:40;;;;;;;6.67;3.27;;;;;;;9.98;100.00;99423.27;1721181;82;21681;-68
2022/05/28 02:46:07;;;;;;;6.25;3.72;;;;;;;9.99;100.00;99436.37;1720966;83;22128;-69
2022/05/28 02:48:34;;;;;;;4.67;3.27;;;;;;;10.01;100.00;99448.15;1721110;82;21074;-69
2022/05/28 02:51:13;;;;;;;5.83;3.58;;;;;;;10.01;100.00;99444.20;1721152;83;21258;-70
2022/05/28 02:53:40;;;;;;;3.87;3.42;;;;;;;10.02;100.00;99445.89;1720945;83;21059;-70
2022/05/28 02:56:07;;;;;;;7.83;3.72;;;;;;;10.04;100.00;99446.68;1720764;83;21038;-71
2022/05/28 02:58:34;;;;;;;5.15;3.75;;;;;;;10.05;100.00;99424.70;1720821;83;21643;-70
2022/05/28 03:01:02;;;;;;;6.35;3.20;;;;;;;10.06;100.00;99432.53;1720787;82;21055;-69
2022/05/28 03:03:30;;;;;;;7.62;3.55;;;;;;;10.10;100.00;99435.89;1720867;83;21675;-70
2022/05/28 03:05:57;;;;;;;4.95;3.45;;;;;;;10.13;100.00;99432.25;1720637;83;21726;-70
2022/05/28 03:08:25;;;;;;;5.30;3.40;;;;;;;10.16;100.00;99432.10;1720797;83;20984;-69
2022/05/28 03:10:53;;;;;;;4.90;3.60;;;;;;;10.19;100.00;99432.83;1720661;82;21015;-70
2022/05/28 03:13:20;;;;;;;5.45;3.65;;;;;;;10.21;100.00;99444.11;1718609;83;21571;-70
2022/05/28 03:15:48;;;;;;;5.92;3.72;;;;;;;10.25;100.00;99433.84;1691748;84;21903;-71
2022/05/28 03:18:14;;;;;;;6.67;3.52;;;;;;;10.31;100.00;99439.77;1691662;84;21055;-69
2022/05/28 03:20:42;;;;;;;5.22;3.72;;;;;;;10.34;100.00;99437.01;1691939;84;21083;-70
2022/05/28 03:23:08;;;;;;;5.53;3.50;;;;;;;10.35;100.00;99437.38;1691935;84;21090;-69
2022/05/28 03:25:35;;;;;;;4.58;3.40;;;;;;;10.35;100.00;99436.06;1692004;84;21075;-70
2022/05/28 03:28:01;;;;;;;5.15;3.85;;;;;;;10.37;100.00;99444.75;1691977;84;21587;-70
2022/05/28 03:30:28;;;;;;;6.50;4.28;;;;;;;10.42;100.00;99457.22;1691980;84;21046;-69
2022/05/28 03:32:55;;;;;;;6.05;3.67;;;;;;;10.49;100.00;99455.56;1691801;84;21110;-69
2022/05/28 03:35:22;;;;;;;6.83;4.33;;;;;;;10.56;100.00;99461.40;1691803;83;21074;-71
2022/05/28 03:37:49;;;;;;;6.50;3.80;;;;;;;10.63;100.00;99466.76;1691784;84;21119;-69
2022/05/28 03:40:16;;;;;;;4.67;3.72;;;;;;;10.69;100.00;99473.03;1691884;84;21027;-69
2022/05/28 03:42:42;;;;;;;5.45;3.45;;;;;;;10.76;100.00;99474.91;1710340;82;21092;-69
2022/05/28 03:45:10;;;;;;;4.47;3.58;;;;;;;10.78;100.00;99472.20;1678554;85;21021;-69
2022/05/28 03:47:38;;;;;;;5.60;3.83;;;;;;;10.82;100.00;99469.34;1713239;83;21065;-68
2022/05/28 03:50:07;;;;;;;7.58;3.92;;;;;;;10.87;100.00;99463.86;1678495;85;21029;-69
2022/05/28 03:52:34;;;;;;;5.03;4.00;;;;;;;10.89;100.00;99462.01;1712952;83;21867;-69
2022/05/28 03:55:00;;;;;;;5.53;3.90;;;;;;;10.90;100.00;99459.75;1678511;85;21730;-69
2022/05/28 03:57:31;;;;;;;9.43;4.00;;;;;;;10.90;100.00;99459.30;1678539;85;21509;-71
2022/05/28 03:59:58;;;;;;;;;;;;;;;10.93;100.00;99464.89;1681280;85;21135;-69
2022/05/28 04:02:25;;;;;;;5.72;3.92;;;;;;;10.96;100.00;99478.37;1678360;85;20217;-69
2022/05/28 04:04:52;;;;;;;5.55;4.22;;;;;;;10.97;100.00;99478.27;1678380;85;21158;-68
2022/05/28 04:07:19;;;;;;;5.12;3.80;;;;;;;10.99;100.00;99472.47;1678230;85;21209;-69
2022/05/28 04:09:46;;;;;;;5.30;3.90;;;;;;;11.03;100.00;99476.66;1678444;85;21077;-69
2022/05/28 04:12:13;;;;;;;4.25;3.52;;;;;;;11.05;100.00;99476.59;1713096;83;21046;-69
2022/05/28 04:14:40;;;;;;;9.88;3.65;;;;;;;11.10;100.00;99484.65;1673860;85;21053;-69
2022/05/28 04:17:08;;;;;;;7.85;3.67;;;;;;;11.15;100.00;99484.42;1678275;85;22759;-70
2022/05/28 04:19:34;;;;;;;6.12;3.75;;;;;;;11.21;100.00;99487.23;1678493;85;21557;-70
2022/05/28 04:22:01;;;;;;;5.30;3.80;;;;;;;11.26;100.00;99493.13;1678260;85;21101;-69
2022/05/28 04:24:28;;;;;;;5.10;3.58;;;;;;;11.29;100.00;99489.01;1678250;84;21017;-70
2022/05/28 04:26:55;;;;;;;5.33;3.45;;;;;;;11.31;100.00;99488.47;1678544;85;21068;-69
2022/05/28 04:29:21;;;;;;;4.35;3.62;;;;;;;11.36;100.00;99486.45;1678584;85;21127;-70
2022/05/28 04:31:48;;;;;;;5.03;3.67;;;;;;;11.40;100.00;99488.48;1678208;85;21078;-70
2022/05/28 04:34:15;;;;;;;5.50;3.27;;;;;;;11.45;100.00;99487.77;1678467;85;21100;-70
2022/05/28 04:36:41;;;;;;;7.65;3.92;;;;;;;11.48;100.00;99492.44;1678228;85;20998;-70
2022/05/28 04:39:08;;;;;;;5.08;3.70;;;;;;;11.55;100.00;99501.73;1678381;85;21076;-69
2022/05/28 04:41:34;;;;;;;5.33;3.85;;;;;;;11.62;100.00;99501.40;1678231;85;21254;-70
2022/05/28 04:44:03;;;;;;;5.60;3.47;;;;;;;11.63;100.00;99497.84;1678393;85;21017;-70
2022/05/28 04:46:29;;;;;;;6.80;3.67;;;;;;;11.66;100.00;99494.57;1678337;85;21065;-71
2022/05/28 04:48:55;;;;;;;5.97;4.05;;;;;;;11.73;100.00;99497.75;1678581;85;21584;-70
2022/05/28 04:51:22;;;;;;;7.05;3.75;;;;;;;11.76;100.00;99500.25;1678576;84;21605;-70
2022/05/28 04:53:49;;;;;;;4.53;3.58;;;;;;;11.84;100.00;99498.05;1678520;85;21132;-71
2022/05/28 04:56:15;;;;;;;6.35;3.70;;;;;;;11.89;100.00;99497.39;1678358;85;21019;-71
2022/05/28 04:58:42;;;;;;;4.90;3.45;;;;;;;11.94;100.00;99504.59;1678249;85;21078;-70
2022/05/28 05:01:14;;;;;;;4.87;3.30;;;;;;;12.01;100.00;99497.66;1678239;85;21063;-70
2022/05/28 05:03:41;;;;;;;6.55;3.40;;;;;;;12.08;100.00;99496.42;1678409;85;21109;-70
2022/05/28 05:06:09;;;;;;;7.05;3.35;;;;;;;12.14;100.00;99501.35;1678053;85;21281;-70
2022/05/28 05:08:36;;;;;;;7.47;3.27;;;;;;;12.22;100.00;99504.45;1677949;85;21073;-70
2022/05/28 05:11:02;;;;;;;6.00;3.62;;;;;;;12.31;100.00;99514.52;1678158;85;21061;-71
2022/05/28 05:13:29;;;;;;;6.45;3.52;;;;;;;12.45;100.00;99512.92;1678768;85;21087;-70
2022/05/28 05:15:57;;;;;;;6.67;3.20;;;;;;;12.54;100.00;99509.77;1683377;85;21068;-71
2022/05/28 05:18:23;;;;;;;4.40;3.37;;;;;;;12.64;100.00;99513.59;1683407;85;21142;-70
2022/05/28 05:20:50;;;;;;;5.05;3.30;;;;;;;12.71;100.00;99504.39;1683231;85;21632;-69
2022/05/28 05:23:21;;;;;;;5.80;3.42;;;;;;;12.86;100.00;99512.39;1683597;85;21040;-70
2022/05/28 05:25:46;;;;;;;5.03;3.27;;;;;;;13.11;100.00;99505.24;1683101;85;21056;-69
2022/05/28 05:28:12;;;;;;;5.03;3.67;;;;;;;13.44;100.00;99503.80;1683502;85;21083;-70
2022/05/28 05:30:40;;;;;;;7.92;3.17;;;;;;;13.90;100.00;99501.05;1683458;85;21339;-70
2022/05/28 05:33:06;;;;;;;9.20;3.37;;;;;;;14.20;97.14;99499.64;1683764;85;21041;-69
2022/05/28 05:35:33;;;;;;;6.65;3.10;;;;;;;14.25;93.24;99506.81;1683605;85;21032;-69
2022/05/28 05:38:05;;;;;;;6.10;3.00;;;;;;;14.15;93.79;99505.70;1683547;85;21088;-70
2022/05/28 05:40:28;;;;;;;6.70;3.75;;;;;;;14.11;94.61;99508.63;1683125;85;21072;-69
2022/05/28 05:42:58;;;;;;;4.12;3.15;;;;;;;14.16;94.10;99496.80;1683400;85;21141;-70
2022/05/28 05:45:23;;;;;;;6.55;3.37;;;;;;;14.25;92.13;99508.14;1683447;84;21123;-70
2022/05/28 05:47:49;;;;;;;8.80;3.22;;;;;;;14.18;91.36;99512.59;1683579;85;21072;-70
2022/05/28 05:50:16;;;;;;;6.75;2.90;;;;;;;14.41;91.75;99512.02;1683646;85;21096;-70
2022/05/28 05:52:43;;;;;;;6.62;2.77;;;;;;;14.75;89.79;99508.59;1683539;85;21068;-70
2022/05/28 05:55:09;;;;;;;4.67;2.83;;;;;;;14.89;85.03;99504.57;1683961;85;21798;-70
2022/05/28 05:57:35;;;;;;;8.80;2.60;;;;;;;15.00;82.11;99512.28;1679534;84;21608;-70
2022/05/28 06:00:03;;;;;;;4.42;3.45;;;;;;;15.23;82.20;99515.63;1678414;85;21061;-70
2022/05/28 06:02:31;;;;;;;5.33;3.40;;;;;;;15.56;79.52;99510.34;1678217;85;21097;-70
2022/05/28 06:04:58;;;;;;;6.60;2.75;;;;;;;15.55;79.37;99508.63;1678195;85;21133;-69
2022/05/28 06:07:26;;;;;;;4.60;2.50;;;;;;;15.67;78.74;99517.10;1678350;85;21125;-69
2022/05/28 06:09:53;;;;;;;3.75;2.60;;;;;;;15.86;78.07;99515.88;1678176;85;21584;-69
2022/05/28 06:12:20;;;;;;;4.22;2.45;;;;;;;15.99;76.93;99518.07;1678394;85;21137;-70
2022/05/28 06:14:46;;;;;;;4.12;3.00;;;;;;;16.08;74.90;99525.85;1678153;85;21037;-71
2022/05/28 06:17:13;;;;;;;5.22;2.90;;;;;;;16.10;75.33;99515.97;1678597;85;21132;-69
2022/05/28 06:19:39;;;;;;;4.47;2.90;;;;;;;16.07;76.43;99509.07;1678198;85;21233;-70
2022/05/28 06:22:06;;;;;;;5.83;2.87;;;;;;;16.16;76.95;99506.26;1678456;85;21056;-71
2022/05/28 06:24:33;;;;;;;6.65;3.62;;;;;;;16.34;78.14;99500.13;1678279;85;21017;-70
2022/05/28 06:27:00;;;;;;;3.87;2.60;;;;;;;16.67;73.85;99492.86;1678523;85;21061;-70
2022/05/28 06:29:28;;;;;;;4.90;3.08;;;;;;;16.86;73.30;99497.72;1678302;85;21096;-70
2022/05/28 06:31:55;;;;;;;4.28;3.02;;;;;;;16.90;71.47;99507.17;1678557;85;21797;-70
2022/05/28 06:34:22;;;;;;;6.72;3.25;;;;;;;16.97;71.98;99509.75;1678143;85;21069;-71
2022/05/28 06:36:49;;;;;;;6.83;2.70;;;;;;;17.02;71.70;99509.91;1678510;85;21123;-70
2022/05/28 06:39:15;;;;;;;5.40;2.85;;;;;;;17.31;70.19;99505.93;1678546;85;21044;-70
2022/05/28 06:41:42;;;;;;;7.33;2.75;;;;;;;17.30;69.19;99515.34;1678220;85;21263;-72
2022/05/28 06:44:09;;;;;;;4.85;3.27;;;;;;;17.19;68.98;99517.02;1678252;85;21237;-71
2022/05/28 06:46:35;;;;;;;5.50;3.17;;;;;;;17.37;68.37;99505.48;1678311;85;21053;-70
2022/05/28 06:49:03;;;;;;;4.50;3.10;;;;;;;17.48;68.94;99509.13;1678206;85;21031;-70
2022/05/28 06:51:31;;;;;;;6.08;3.10;;;;;;;17.50;68.90;99508.53;1678452;85;21049;-70
2022/05/28 06:53:58;;;;;;;5.97;2.90;;;;;;;17.53;68.63;99509.17;1678736;85;21500;-70
2022/05/28 06:56:24;;;;;;;4.20;2.80;;;;;;;17.67;69.81;99504.13;1678208;85;21896;-71
2022/05/28 06:58:51;;;;;;;5.15;3.20;;;;;;;18.10;68.73;99499.48;1678267;85;21648;-71
2022/05/28 07:01:18;;;;;;;7.10;3.33;;;;;;;18.43;67.34;99504.47;1678314;85;21629;-71
2022/05/28 07:03:44;;;;;;;9.30;3.02;;;;;;;18.68;65.09;99507.81;1678218;85;21056;-70
2022/05/28 07:06:11;;;;;;;6.22;3.05;;;;;;;18.73;65.73;99498.49;1678263;85;21494;-71
2022/05/28 07:08:39;;;;;;;6.40;2.92;;;;;;;18.94;64.29;99499.92;1678170;85;21273;-70
2022/05/28 07:11:06;;;;;;;6.22;2.80;;;;;;;19.11;64.10;99495.02;1678077;85;21148;-72
2022/05/28 07:13:34;;;;;;;4.17;3.10;;;;;;;19.22;63.33;99481.63;1678098;85;21549;-71
2022/05/28 07:16:00;;;;;;;8.88;3.72;;;;;;;19.50;61.39;99491.68;1678370;85;21105;-73
2022/05/28 07:18:27;;;;;;;6.37;3.08;;;;;;;19.83;60.76;99505.87;1678193;85;21081;-71
2022/05/28 07:20:54;;;;;;;8.70;2.98;;;;;;;20.20;59.95;99498.69;1678293;85;21169;-69
2022/05/28 07:23:24;;;;;;;4.92;2.58;;;;;;;20.73;58.99;99498.98;1678249;85;21069;-71
2022/05/28 07:26:07;;;;;;;7.15;2.72;;;;;;;21.22;56.16;99497.20;1678457;85;21597;-70
2022/05/28 07:28:36;;;;;;;4.80;2.52;;;;;;;21.34;54.81;99503.27;1678108;85;21057;-70
2022/05/28 07:31:15;;;;;;;3.83;2.35;;;;;;;21.13;54.24;99514.95;1678436;85;21042;-70
2022/05/28 07:33:44;;;;;;;4.72;2.10;;;;;;;20.97;53.67;99511.97;1678190;85;21658;-71
2022/05/28 07:36:13;;;;;;;3.85;2.60;;;;;;;20.62;54.32;99516.47;1678267;85;21065;-69
2022/05/28 07:38:41;;;;;;;5.78;2.37;;;;;;;20.42;54.24;99511.50;1678348;85;21594;-71
2022/05/28 07:41:22;;;;;;;10.40;2.80;;;;;;;20.32;54.42;99514.14;1678454;85;21041;-71
2022/05/28 07:43:50;;;;;;;3.67;2.27;;;;;;;20.44;54.77;99500.19;1682563;85;21049;-69
2022/05/28 07:46:23;;;;;;;7.20;3.27;;;;;;;20.63;52.89;99500.77;1681126;85;21162;-71
2022/05/28 07:48:49;;;;;;;4.80;2.50;;;;;;;20.73;52.70;99499.81;1682963;84;21057;-70
2022/05/28 07:51:16;;;;;;;8.15;2.17;;;;;;;20.81;51.97;99503.63;1683921;85;21092;-70
2022/05/28 07:53:43;;;;;;;6.67;2.58;;;;;;;20.55;53.11;99501.42;1683646;85;21102;-71
2022/05/28 07:56:10;;;;;;;5.85;2.20;;;;;;;20.61;52.59;99492.86;1683515;85;21038;-71
2022/05/28 07:58:36;;;;;;;2.45;1.90;;;;;;;20.88;53.58;99491.39;1683525;85;21214;-71
2022/05/28 08:01:04;;;;;;;7.85;2.75;;;;;;;21.27;51.64;99494.10;1683479;85;21136;-70
2022/05/28 08:03:31;;;;;;;5.87;2.47;;;;;;;21.45;49.40;99492.44;1683503;85;21109;-71
2022/05/28 08:05:59;;;;;;;7.00;2.70;;;;;;;21.68;46.94;99496.16;1683568;85;21573;-70
2022/05/28 08:08:27;;;;;;;8.43;2.27;;;;;;;21.64;45.81;99488.05;1683541;85;21161;-71
2022/05/28 08:10:55;;;;;;;4.37;1.90;;;;;;;21.70;45.88;99497.70;1683489;85;21036;-70
2022/05/28 08:13:23;;;;;;;4.80;2.37;;;;;;;21.82;41.17;99501.06;1683043;85;21531;-71
2022/05/28 08:15:52;;;;;;;7.33;2.20;;;;;;;21.70;41.54;99486.98;1671788;85;21091;-71
2022/05/28 08:18:21;;;;;;;7.03;2.02;;;;;;;21.44;41.36;99487.21;1672189;85;22233;-72
2022/05/28 08:23:33;;;;;;;5.62;2.08;;;;;;;21.00;41.98;99497.45;1671852;84;21317;-70
2022/05/28 08:26:00;;;;;;;8.35;2.22;;;;;;;20.67;43.73;99497.68;1671925;85;21051;-71
2022/05/28 08:28:26;;;;;;;4.20;1.98;;;;;;;20.83;42.57;99499.83;1671847;84;21204;-70
2022/05/28 08:30:53;;;;;;;6.47;2.10;;;;;;;21.09;41.16;99492.11;1671592;85;21020;-71
2022/05/28 08:33:20;;;;;;;4.40;1.98;;;;;;;20.86;40.55;99504.05;1672159;85;21071;-71
2022/05/28 08:35:50;;;;;;;6.75;1.98;;;;;;;20.81;40.96;99504.47;1671878;85;21249;-71
2022/05/28 08:38:19;;;;;;;6.17;2.07;;;;;;;21.01;41.01;99500.00;1672093;85;21111;-70
2022/05/28 08:41:00;;;;;;;4.92;1.92;;;;;;;21.42;40.70;99503.45;1671714;85;21024;-72
2022/05/28 08:43:36;;;;;;;3.55;1.52;;;;;;;21.44;39.33;99502.81;1680941;84;22047;-72
2022/05/28 08:46:03;;;;;;;5.30;1.95;;;;;;;21.42;38.89;99492.73;1691353;84;21064;-72
2022/05/28 08:48:49;;;;;;;3.92;1.90;;;;;;;21.26;38.15;99509.83;1691308;84;21562;-71
2022/05/28 08:51:30;;;;;;;8.65;1.70;;;;;;;21.19;38.73;99496.63;1691425;84;21020;-72
2022/05/28 08:54:09;;;;;;;5.72;1.87;;;;;;;21.23;38.98;99498.05;1689547;84;21064;-70
2022/05/28 08:56:37;;;;;;;6.47;1.82;;;;;;;21.61;39.80;99496.38;1688550;84;21636;-71
2022/05/28 08:59:12;;;;;;;4.80;1.90;;;;;;;21.87;38.05;99484.55;1691659;84;21075;-71
2022/05/28 09:01:40;;;;;;;3.80;1.62;;;;;;;21.75;38.01;99499.95;1691553;84;21169;-71
2022/05/28 09:04:14;;;;;;;4.33;1.47;;;;;;;21.54;38.17;99499.63;1691705;84;21084;-71
2022/05/28 09:06:51;;;;;;;2.65;1.42;;;;;;;21.39;36.74;99494.30;1691403;84;21059;-71
2022/05/28 09:09:15;;;;;;;4.53;1.60;;;;;;;21.36;36.65;99506.14;1691361;84;21063;-71
2022/05/28 09:11:51;;;;;;;6.40;2.50;;;;;;;21.25;37.57;99501.43;1691687;84;21706;-71
2022/05/28 09:14:26;;;;;;;5.05;1.82;;;;;;;21.29;38.56;99503.69;1691525;84;21363;-71
2022/05/28 09:16:56;;;;;;;5.65;2.08;;;;;;;21.42;38.88;99491.86;1690871;84;21041;-71
2022/05/28 09:19:30;;;;;;;6.05;2.20;;;;;;;21.45;38.07;99495.12;1691300;84;21038;-70
2022/05/28 09:21:57;;;;;;;3.80;1.82;;;;;;;21.37;38.56;99492.25;1690140;84;21085;-71
2022/05/28 09:24:27;;;;;;;6.17;1.55;;;;;;;21.37;38.74;99497.61;1691605;84;21124;-72
2022/05/28 09:27:15;;;;;;;2.87;1.50;;;;;;;21.38;39.29;99486.77;1691157;84;21816;-71
2022/05/28 09:30:21;;;;;;;5.35;1.70;;;;;;;21.33;37.98;99481.50;1691016;84;21058;-70
2022/05/28 09:32:55;;;;;;;4.35;1.65;;;;;;;20.87;38.62;99491.89;1690865;84;21038;-70
2022/05/28 09:35:46;;;;;;;5.70;1.77;;;;;;;20.97;38.36;99497.25;1691062;84;21565;-71
2022/05/28 09:38:54;;;;;;;5.62;1.55;;;;;;;21.14;38.18;99489.88;1690881;84;21030;-71
2022/05/28 09:41:29;;;;;;;5.22;1.70;;;;;;;21.43;37.94;99478.34;1632903;87;21227;-72
2022/05/28 09:44:25;;;;;;;5.35;1.72;;;;;;;22.00;37.76;99482.40;1623497;87;21092;-71
2022/05/28 09:46:51;;;;;;;4.42;1.62;;;;;;;22.54;36.64;99483.45;1696202;82;21037;-71
2022/05/28 09:49:20;;;;;;;7.62;2.22;;;;;;;22.70;35.57;99481.47;1678402;85;21076;-72
2022/05/28 09:52:09;;;;;;;4.60;1.80;;;;;;;22.53;35.65;99480.44;1678585;85;21108;-71
2022/05/28 09:54:36;;;;;;;4.62;1.85;;;;;;;22.23;36.20;99479.39;1712898;83;21252;-72
2022/05/28 09:57:10;;;;;;;2.67;1.45;;;;;;;22.16;36.57;99479.10;1678312;85;21061;-71
2022/05/28 09:59:55;;;;;;;4.60;1.50;;;;;;;22.40;34.64;99471.39;1678421;85;21085;-70
2022/05/28 10:02:35;;;;;;;3.98;1.40;;;;;;;22.64;36.61;99474.04;1712993;83;21542;-71
2022/05/28 10:05:16;;;;;;;2.75;1.27;;;;;;;22.53;34.83;99467.53;1712244;82;21101;-70
2022/05/28 10:07:49;;;;;;;5.50;1.70;;;;;;;22.48;34.09;99461.27;1713166;83;21114;-72
2022/05/28 10:10:31;;;;;;;4.65;1.60;;;;;;;22.53;33.49;99463.50;1678381;85;21521;-73
2022/05/28 10:13:16;;;;;;;5.25;1.90;;;;;;;22.81;33.40;99449.55;1713181;83;21027;-71
2022/05/28 10:15:47;;;;;;;3.62;1.60;;;;;;;23.07;33.38;99451.00;1650943;86;21053;-70
2022/05/28 10:18:21;;;;;;;2.62;1.40;;;;;;;22.86;33.04;99455.81;1684533;84;21344;-71
2022/05/28 10:21:16;;;;;;;4.30;1.52;;;;;;;22.67;33.67;99454.94;1684106;84;21146;-71
2022/05/28 10:23:52;;;;;;;5.20;1.75;;;;;;;22.62;33.78;99459.92;1674163;84;21038;-71
2022/05/28 10:26:30;;;;;;;6.50;1.50;;;;;;;22.70;34.53;99457.31;1651049;86;21037;-71
2022/05/28 10:29:04;;;;;;;3.60;1.50;;;;;;;22.47;33.91;99462.75;1650941;86;21045;-72
2022/05/28 10:31:36;;;;;;;5.78;1.60;;;;;;;22.63;33.43;99456.23;1650695;86;21048;-71
2022/05/28 10:34:04;;;;;;;2.70;1.35;;;;;;;23.10;33.96;99439.98;1684528;84;21131;-70
2022/05/28 10:36:33;;;;;;;6.40;1.27;;;;;;;23.36;32.57;99453.95;1650669;86;21537;-71
2022/05/28 10:39:08;;;;;;;4.28;1.52;;;;;;;23.55;33.02;99443.01;1684085;85;21124;-72
2022/05/28 10:41:35;;;;;;;5.17;1.37;;;;;;;23.54;32.12;99445.36;1682383;84;21378;-70
2022/05/28 10:44:01;;;;;;;4.25;1.50;;;;;;;23.49;31.45;99441.44;1654215;85;21056;-71
2022/05/28 10:47:00;;;;;;;4.85;1.70;;;;;;;23.36;31.91;99436.49;1658237;86;21611;-73
2022/05/28 10:49:46;;;;;;;4.83;1.70;;;;;;;23.19;32.51;99433.67;1709543;83;21041;-71
2022/05/28 10:52:21;;;;;;;4.33;1.57;;;;;;;23.06;32.25;99441.78;1696323;83;21045;-71
2022/05/28 10:54:56;;;;;;;4.80;1.40;;;;;;;23.34;33.11;99428.58;1750907;81;20990;-71
2022/05/28 10:57:47;;;;;;;5.28;1.42;;;;;;;23.89;32.70;99430.16;1714761;83;21089;-71
2022/05/28 11:00:21;;;;;;;5.20;1.92;;;;;;;24.20;29.32;99429.63;1714832;83;21216;-72
2022/05/28 11:03:12;;;;;;;3.75;1.40;;;;;;;24.10;30.51;99422.20;1750639;82;21074;-72
2022/05/28 11:06:03;;;;;;;3.22;1.47;;;;;;;24.12;30.43;99421.55;1714712;83;21056;-71
2022/05/28 11:08:48;;;;;;;4.67;1.60;;;;;;;23.63;30.49;99421.58;1750652;82;21565;-72
2022/05/28 11:11:38;;;;;;;4.25;1.67;;;;;;;23.08;31.09;99428.54;1739431;82;21022;-71
2022/05/28 11:14:30;;;;;;;5.75;1.42;;;;;;;22.81;31.82;99434.28;1739346;82;21125;-71
2022/05/28 11:17:20;;;;;;;7.10;1.70;;;;;;;22.71;31.64;99437.55;1720624;83;21055;-71
2022/05/28 11:19:51;;;;;;;;;;;;;;;22.35;32.65;99426.73;1723268;83;21566;-71
2022/05/28 11:22:51;;;;;;;4.78;1.42;;;;;;;22.21;32.77;99435.28;1720670;82;20530;-71
2022/05/28 11:25:41;;;;;;;7.83;1.50;;;;;;;21.81;32.39;99431.04;1720694;83;21090;-72
2022/05/28 11:28:45;;;;;;;4.53;1.65;;;;;;;21.16;33.66;99434.36;1720505;82;21075;-70
2022/05/28 11:31:41;;;;;;;5.25;2.08;;;;;;;20.62;34.71;99434.38;1697026;83;21519;-70
2022/05/28 11:34:21;;;;;;;4.72;1.55;;;;;;;20.30;36.27;99443.41;1717180;83;21012;-71
2022/05/28 11:37:09;;;;;;;6.35;1.77;;;;;;;20.14;36.17;99436.39;1720744;83;21103;-71
2022/05/28 11:39:55;;;;;;;2.65;1.32;;;;;;;19.93;36.17;99442.29;1655074;86;21092;-71
2022/05/28 11:42:31;;;;;;;7.20;1.77;;;;;;;19.83;36.54;99436.41;1707898;83;21582;-71
2022/05/28 11:45:01;;;;;;;3.83;1.47;;;;;;;19.99;37.78;99445.74;1715202;82;21083;-70
2022/05/28 11:47:39;;;;;;;6.97;1.67;;;;;;;20.29;37.23;99433.72;1712985;82;21658;-72
2022/05/28 11:53:30;;;;;;;8.38;1.67;;;;;;;20.60;35.92;99424.31;1713217;83;21059;-71
2022/05/28 11:56:02;;;;;;;4.12;1.72;;;;;;;20.61;36.12;99431.34;1713142;83;21825;-70
2022/05/28 11:58:35;;;;;;;4.10;1.40;;;;;;;20.79;35.25;99437.36;1699503;83;21039;-70
2022/05/28 12:01:04;;;;;;;5.95;1.42;;;;;;;21.03;34.72;99428.44;1713229;83;21068;-71